Time;durP1;ratioP1;P1;durP2;ratioP2;P2;SDS_P1;SDS_P2;PMS_P1;PMS_P2;Temp;Humidity;BMP_temperature;BMP_pressure;BME280_temperature;BME280_humidity;BME280_pressure;Samples;Min_cycle;Max_cycle;Signal;HPM_P1;HPM_P2
2020/12/30 00:00:53;;;;;;;2.57;2.13;;;6.30;99.90;;;;;;4899808;28;20220;-79
2020/12/30 00:03:15;;;;;;;3.60;2.00;;;6.10;99.90;;;;;;4897552;28;20614;-76
2020/12/30 00:05:38;;;;;;;2.20;1.83;;;6.00;99.90;;;;;;4885786;28;20318;-77
2020/12/30 00:08:00;;;;;;;3.60;1.80;;;6.00;99.90;;;;;;4885524;28;20238;-73
2020/12/30 00:10:23;;;;;;;3.30;2.53;;;6.00;99.90;;;;;;4885980;28;20681;-73
2020/12/30 00:12:46;;;;;;;3.30;2.13;;;5.90;99.90;;;;;;4887540;28;20182;-74
2020/12/30 00:15:09;;;;;;;2.47;2.00;;;5.90;99.90;;;;;;4898928;28;20188;-73
2020/12/30 00:17:31;;;;;;;4.20;1.97;;;5.80;99.90;;;;;;4902750;28;20188;-80
2020/12/30 00:19:53;;;;;;;4.63;2.10;;;5.80;99.90;;;;;;4901911;28;20245;-75
2020/12/30 00:22:17;;;;;;;2.87;2.07;;;5.80;99.90;;;;;;4904280;28;20184;-72
2020/12/30 00:24:39;;;;;;;6.03;2.13;;;5.60;99.90;;;;;;4899480;28;20253;-74
2020/12/30 00:27:03;;;;;;;2.97;1.80;;;5.80;99.90;;;;;;4905639;28;20180;-76
2020/12/30 00:29:25;;;;;;;3.23;1.93;;;5.70;99.90;;;;;;4876322;28;20247;-74
2020/12/30 00:31:47;;;;;;;2.80;1.87;;;5.60;99.90;;;;;;4903230;28;20250;-73
2020/12/30 00:34:10;;;;;;;3.37;2.07;;;5.60;99.90;;;;;;4888043;28;20659;-72
2020/12/30 00:36:37;;;;;;;2.63;2.30;;;5.70;99.90;;;;;;4890725;28;20200;-74
2020/12/30 00:39:00;;;;;;;2.40;2.17;;;5.60;99.90;;;;;;4915107;28;20229;-74
2020/12/30 00:41:22;;;;;;;3.87;2.37;;;5.70;99.90;;;;;;4897701;28;20558;-73
2020/12/30 00:43:44;;;;;;;2.80;2.33;;;5.50;99.90;;;;;;4905977;28;20192;-73
2020/12/30 00:46:06;;;;;;;2.27;1.80;;;5.70;99.90;;;;;;4909020;28;20245;-73
2020/12/30 00:48:28;;;;;;;1.87;1.77;;;5.60;99.90;;;;;;4909083;28;20730;-73
2020/12/30 00:50:50;;;;;;;2.30;2.10;;;5.60;99.90;;;;;;4890353;28;20638;-73
2020/12/30 00:53:12;;;;;;;2.60;2.23;;;5.60;99.90;;;;;;4883410;28;20266;-76
2020/12/30 00:55:36;;;;;;;2.37;2.17;;;5.60;99.90;;;;;;4893441;28;20259;-74
2020/12/30 00:58:24;;;;;;;2.60;2.30;;;5.50;99.90;;;;;;4895927;28;20293;-73
2020/12/30 01:00:48;;;;;;;2.93;2.40;;;5.50;99.90;;;;;;4866849;28;20221;-74
2020/12/30 01:03:46;;;;;;;2.83;2.20;;;5.50;99.90;;;;;;4900311;28;20650;-74
2020/12/30 01:06:11;;;;;;;3.20;2.63;;;5.50;99.90;;;;;;4905875;28;20192;-73
2020/12/30 01:08:33;;;;;;;2.97;2.67;;;5.60;99.90;;;;;;4893419;28;20757;-73
2020/12/30 01:10:56;;;;;;;2.50;2.30;;;5.40;99.90;;;;;;4910651;28;20641;-74
2020/12/30 01:13:18;;;;;;;2.77;2.23;;;5.40;99.90;;;;;;4882876;28;20262;-72
2020/12/30 01:15:41;;;;;;;2.40;2.20;;;5.50;99.90;;;;;;4914706;28;20234;-73
2020/12/30 01:18:03;;;;;;;3.10;2.37;;;5.50;99.90;;;;;;4886690;28;20728;-73
2020/12/30 01:20:25;;;;;;;3.57;2.53;;;5.50;99.90;;;;;;4910800;28;20731;-73
2020/12/30 01:22:47;;;;;;;3.50;2.40;;;5.50;99.90;;;;;;4891985;28;20262;-73
2020/12/30 01:25:09;;;;;;;3.17;2.57;;;5.40;99.90;;;;;;4912338;28;20184;-73
2020/12/30 01:27:32;;;;;;;3.27;2.83;;;5.40;99.90;;;;;;4902779;28;20245;-73
2020/12/30 01:29:54;;;;;;;4.30;3.60;;;5.50;99.90;;;;;;4896003;28;20188;-72
2020/12/30 01:32:17;;;;;;;4.60;4.17;;;5.40;99.90;;;;;;4907256;28;20662;-72
2020/12/30 01:34:39;;;;;;;6.00;4.27;;;5.40;99.90;;;;;;4912773;28;20207;-73
2020/12/30 01:37:01;;;;;;;4.13;3.33;;;5.40;99.90;;;;;;4907853;28;20210;-72
2020/12/30 01:39:23;;;;;;;3.20;2.90;;;5.40;99.90;;;;;;4886858;28;20208;-72
2020/12/30 01:41:45;;;;;;;4.03;3.57;;;5.40;99.90;;;;;;4869900;28;20206;-73
2020/12/30 01:44:09;;;;;;;4.63;3.40;;;5.40;99.90;;;;;;4904457;28;20196;-72
2020/12/30 01:46:37;;;;;;;3.37;2.90;;;5.40;99.90;;;;;;4871223;28;20278;-72
2020/12/30 01:49:01;;;;;;;4.90;3.47;;;5.40;99.90;;;;;;4900605;28;20297;-74
2020/12/30 01:51:23;;;;;;;4.37;3.00;;;5.40;99.90;;;;;;4872956;28;20714;-73
2020/12/30 01:53:45;;;;;;;4.50;3.67;;;5.40;99.90;;;;;;4890334;28;20266;-73
2020/12/30 01:56:07;;;;;;;4.87;3.83;;;5.40;99.90;;;;;;4870128;28;20567;-73
2020/12/30 01:58:30;;;;;;;5.17;4.00;;;5.40;99.90;;;;;;4907605;28;20188;-72
2020/12/30 02:00:54;;;;;;;4.60;3.83;;;5.50;99.90;;;;;;4904116;28;20220;-73
2020/12/30 02:03:17;;;;;;;4.07;3.60;;;5.40;99.90;;;;;;4894383;28;20235;-72
2020/12/30 02:05:39;;;;;;;4.30;3.57;;;5.40;99.90;;;;;;4885571;28;20729;-73
2020/12/30 02:08:02;;;;;;;3.60;3.07;;;5.40;99.90;;;;;;4903950;28;20262;-73
2020/12/30 02:10:26;;;;;;;4.67;3.23;;;5.40;99.90;;;;;;4840905;28;20198;-72
2020/12/30 02:12:50;;;;;;;7.00;4.00;;;5.40;99.90;;;;;;4906833;28;20561;-72
2020/12/30 02:15:27;;;;;;;4.00;3.60;;;5.40;99.90;;;;;;4904947;28;20728;-72
2020/12/30 02:17:50;;;;;;;5.93;3.73;;;5.40;99.90;;;;;;4880589;28;20746;-73
2020/12/30 02:20:12;;;;;;;4.10;3.53;;;5.40;99.90;;;;;;4902941;28;20193;-73
2020/12/30 02:22:34;;;;;;;5.70;4.27;;;5.30;99.90;;;;;;4885835;28;20267;-72
2020/12/30 02:24:57;;;;;;;5.13;4.43;;;5.30;99.90;;;;;;4885504;28;20545;-73
2020/12/30 02:27:19;;;;;;;6.73;5.80;;;5.30;99.90;;;;;;4905010;28;20188;-72
2020/12/30 02:29:42;;;;;;;8.43;6.93;;;5.20;99.90;;;;;;4903569;28;20181;-73
2020/12/30 02:32:04;;;;;;;7.73;6.97;;;5.20;99.90;;;;;;4904351;28;20218;-74
2020/12/30 02:34:26;;;;;;;8.60;6.43;;;5.30;99.90;;;;;;4895258;28;20613;-71
2020/12/30 02:36:48;;;;;;;7.00;5.73;;;5.30;99.90;;;;;;4903802;28;20184;-72
2020/12/30 02:39:11;;;;;;;8.37;6.17;;;5.30;99.90;;;;;;4899622;28;20246;-72
2020/12/30 02:41:35;;;;;;;8.27;6.67;;;5.10;99.90;;;;;;4902510;28;20185;-73
2020/12/30 02:43:57;;;;;;;9.73;7.50;;;5.20;99.90;;;;;;4900395;28;20180;-74
2020/12/30 02:46:19;;;;;;;10.87;7.60;;;5.20;99.90;;;;;;4905350;28;20196;-77
2020/12/30 02:48:42;;;;;;;13.73;7.50;;;5.20;99.90;;;;;;4871480;28;20275;-72
2020/12/30 02:51:04;;;;;;;10.07;7.43;;;5.20;99.90;;;;;;4887202;28;20201;-73
2020/12/30 02:53:26;;;;;;;16.77;9.23;;;5.10;99.90;;;;;;4892564;28;20176;-73
2020/12/30 02:55:48;;;;;;;22.33;13.90;;;5.20;99.90;;;;;;4904945;28;20187;-72
2020/12/30 02:58:11;;;;;;;19.77;14.70;;;5.10;99.90;;;;;;4887063;28;20193;-72
2020/12/30 03:00:33;;;;;;;19.40;16.80;;;5.20;99.90;;;;;;4905885;28;20220;-73
2020/12/30 03:02:55;;;;;;;13.53;10.63;;;5.10;99.90;;;;;;4905591;28;20224;-73
2020/12/30 03:05:17;;;;;;;11.10;9.77;;;5.20;99.90;;;;;;4886466;28;20685;-72
2020/12/30 03:07:39;;;;;;;14.20;11.87;;;5.10;99.90;;;;;;4902395;28;20230;-71
2020/12/30 03:10:01;;;;;;;13.63;11.80;;;5.10;99.90;;;;;;4903670;28;20185;-74
2020/12/30 03:12:23;;;;;;;10.73;9.63;;;5.10;99.90;;;;;;4884229;28;20204;-72
2020/12/30 03:14:46;;;;;;;10.37;9.27;;;5.20;99.90;;;;;;4883576;28;20774;-72
2020/12/30 03:17:09;;;;;;;9.47;8.17;;;5.10;99.90;;;;;;4886695;28;20231;-73
2020/12/30 03:19:31;;;;;;;10.67;9.60;;;5.10;99.90;;;;;;4896930;28;20642;-74
2020/12/30 03:21:53;;;;;;;8.73;7.20;;;4.90;99.90;;;;;;4909024;28;20188;-79
2020/12/30 03:24:15;;;;;;;7.70;6.17;;;5.00;99.90;;;;;;4885080;28;20192;-78
2020/12/30 03:26:37;;;;;;;7.10;6.40;;;5.10;99.90;;;;;;4887313;28;20205;-80
2020/12/30 03:29:01;;;;;;;5.30;4.73;;;5.10;99.90;;;;;;4905890;28;20183;-74
2020/12/30 03:31:24;;;;;;;4.30;3.90;;;4.90;99.90;;;;;;4905637;28;20185;-72
2020/12/30 03:33:46;;;;;;;4.77;4.27;;;5.20;99.90;;;;;;4887175;28;20389;-73
2020/12/30 03:36:08;;;;;;;5.33;4.83;;;5.00;99.90;;;;;;4886238;28;20185;-72
2020/12/30 03:38:30;;;;;;;5.67;5.17;;;5.00;99.90;;;;;;4884300;28;20193;-73
2020/12/30 03:40:52;;;;;;;5.73;5.23;;;5.10;99.90;;;;;;4909084;28;20196;-80
2020/12/30 03:43:14;;;;;;;5.70;5.13;;;5.00;99.90;;;;;;4911851;28;20241;-72
2020/12/30 03:45:36;;;;;;;6.00;5.40;;;5.00;99.90;;;;;;4889134;28;20278;-72
2020/12/30 03:47:59;;;;;;;5.50;4.83;;;4.90;99.90;;;;;;4870494;28;20193;-72
2020/12/30 03:50:21;;;;;;;5.50;5.00;;;4.90;99.90;;;;;;4869780;28;20219;-73
2020/12/30 03:52:43;;;;;;;5.70;5.20;;;4.90;99.90;;;;;;4907471;28;20210;-72
2020/12/30 03:55:06;;;;;;;7.70;5.57;;;4.70;99.90;;;;;;4904293;28;20688;-73
2020/12/30 03:57:28;;;;;;;5.90;5.30;;;4.80;99.90;;;;;;4884216;28;20223;-72
2020/12/30 03:59:50;;;;;;;6.67;5.70;;;4.80;99.90;;;;;;4902443;28;20231;-72
2020/12/30 04:02:12;;;;;;;7.20;5.77;;;4.60;99.90;;;;;;4890209;28;20726;-73
2020/12/30 04:04:35;;;;;;;7.50;6.13;;;4.70;99.90;;;;;;4896704;28;20250;-72
2020/12/30 04:06:57;;;;;;;6.27;5.67;;;4.70;99.90;;;;;;4886770;28;20196;-72
2020/12/30 04:09:19;;;;;;;6.77;6.07;;;4.70;99.90;;;;;;4908594;28;20431;-72
2020/12/30 04:11:41;;;;;;;6.57;5.47;;;4.70;99.90;;;;;;4912284;28;20704;-73
2020/12/30 04:14:23;;;;;;;6.03;5.23;;;4.70;99.90;;;;;;4911131;28;20234;-81
2020/12/30 04:17:05;;;;;;;10.37;7.27;;;4.60;99.90;;;;;;4908587;28;20188;-80
2020/12/30 04:19:49;;;;;;;7.63;6.90;;;4.60;99.90;;;;;;4900907;28;20179;-77
2020/12/30 04:22:31;;;;;;;7.67;6.57;;;4.60;99.90;;;;;;4887322;28;20169;-73
2020/12/30 04:24:55;;;;;;;6.80;6.10;;;4.60;99.90;;;;;;4868438;28;20205;-73
2020/12/30 04:27:17;;;;;;;7.87;7.00;;;4.60;99.90;;;;;;4890286;28;20193;-75
2020/12/30 04:29:39;;;;;;;8.20;7.17;;;4.60;99.90;;;;;;4908405;28;20592;-77
2020/12/30 04:32:01;;;;;;;10.63;9.03;;;4.60;99.90;;;;;;4873986;28;20197;-72
2020/12/30 04:34:24;;;;;;;10.50;8.93;;;4.60;99.90;;;;;;4888413;28;20214;-75
2020/12/30 04:36:46;;;;;;;13.60;12.20;;;4.70;99.90;;;;;;4909584;28;20241;-80
2020/12/30 04:39:09;;;;;;;15.53;13.17;;;4.70;99.90;;;;;;4889041;28;20184;-75
2020/12/30 04:41:33;;;;;;;11.80;10.60;;;4.70;99.90;;;;;;4905885;28;20226;-75
2020/12/30 04:43:57;;;;;;;9.70;8.43;;;4.70;99.90;;;;;;4906208;28;20604;-74
2020/12/30 04:46:21;;;;;;;9.73;7.27;;;4.80;99.90;;;;;;4915003;28;20243;-75
2020/12/30 04:48:43;;;;;;;58.57;34.80;;;4.70;99.90;;;;;;4890813;28;20220;-79
2020/12/30 04:51:05;;;;;;;19.03;12.40;;;4.80;99.90;;;;;;4905959;28;20246;-75
2020/12/30 04:53:29;;;;;;;21.83;16.00;;;4.80;99.90;;;;;;4894475;28;20780;-73
2020/12/30 04:55:52;;;;;;;34.03;24.97;;;4.90;99.90;;;;;;4911481;28;20207;-75
2020/12/30 04:58:16;;;;;;;29.47;20.80;;;4.90;99.90;;;;;;4907377;28;20245;-73
2020/12/30 05:00:39;;;;;;;15.17;10.30;;;4.90;99.90;;;;;;4851576;28;20594;-72
2020/12/30 05:03:06;;;;;;;12.10;8.73;;;4.90;99.90;;;;;;4907698;28;20192;-76
2020/12/30 05:05:29;;;;;;;11.27;9.13;;;4.90;99.90;;;;;;4897065;28;20193;-73
2020/12/30 05:07:53;;;;;;;9.30;7.57;;;4.90;99.90;;;;;;4897688;28;20188;-73
2020/12/30 05:10:17;;;;;;;9.30;6.73;;;4.90;99.90;;;;;;4905512;28;20218;-72
2020/12/30 05:12:39;;;;;;;7.13;6.10;;;4.90;99.90;;;;;;4888148;28;20212;-73
2020/12/30 05:15:01;;;;;;;4.93;4.30;;;4.90;99.90;;;;;;4893604;28;20277;-73
2020/12/30 05:17:23;;;;;;;4.70;4.13;;;4.90;99.90;;;;;;4881127;28;20198;-74
2020/12/30 05:19:46;;;;;;;4.23;3.83;;;4.90;99.90;;;;;;4892599;28;20628;-75
2020/12/30 05:22:15;;;;;;;4.10;3.70;;;5.00;99.90;;;;;;4906627;28;20546;-82
2020/12/30 05:24:37;;;;;;;5.10;4.63;;;4.70;99.90;;;;;;4884254;28;20193;-79
2020/12/30 05:27:00;;;;;;;5.10;4.40;;;5.00;99.90;;;;;;4890155;28;20205;-79
2020/12/30 05:29:23;;;;;;;5.33;4.83;;;4.90;99.90;;;;;;4912465;28;20184;-83
2020/12/30 05:31:50;;;;;;;4.47;4.07;;;4.90;99.90;;;;;;4908590;28;20188;-76
2020/12/30 05:34:12;;;;;;;3.77;3.47;;;4.90;99.90;;;;;;4904408;28;20237;-78
2020/12/30 05:36:34;;;;;;;4.67;3.57;;;4.90;99.90;;;;;;4890078;28;20197;-73
2020/12/30 05:38:56;;;;;;;3.90;3.50;;;4.90;99.90;;;;;;4907954;28;20192;-73
2020/12/30 05:41:20;;;;;;;3.53;3.23;;;4.80;99.90;;;;;;4906116;28;20192;-72
2020/12/30 05:43:43;;;;;;;3.53;2.73;;;4.80;99.90;;;;;;4904500;28;20189;-73
2020/12/30 05:46:05;;;;;;;4.80;2.77;;;4.90;99.90;;;;;;4905208;28;20241;-71
2020/12/30 05:48:27;;;;;;;2.90;2.60;;;4.90;99.90;;;;;;4905002;28;20204;-75
2020/12/30 05:50:51;;;;;;;3.70;2.70;;;4.90;99.90;;;;;;4891760;28;20224;-77
2020/12/30 05:53:15;;;;;;;3.33;3.03;;;4.90;99.90;;;;;;4900770;28;20192;-77
2020/12/30 05:55:37;;;;;;;3.50;2.57;;;4.80;99.90;;;;;;4901824;28;20262;-81
2020/12/30 05:58:04;;;;;;;3.10;2.73;;;4.90;99.90;;;;;;4905178;28;20722;-79
2020/12/30 06:00:30;;;;;;;2.83;2.57;;;4.80;99.90;;;;;;4903669;28;20234;-75
2020/12/30 06:02:52;;;;;;;3.07;2.70;;;4.90;99.90;;;;;;4890228;28;20221;-76
2020/12/30 06:05:17;;;;;;;3.27;2.93;;;4.80;99.90;;;;;;4911218;28;20184;-82
2020/12/30 06:07:40;;;;;;;3.57;2.57;;;4.80;99.90;;;;;;4904517;28;20199;-83
2020/12/30 06:10:03;;;;;;;2.67;2.47;;;4.70;99.90;;;;;;4911105;28;20184;-76
2020/12/30 06:12:27;;;;;;;3.23;2.87;;;4.80;99.90;;;;;;4897305;28;20189;-73
2020/12/30 06:14:50;;;;;;;3.00;2.50;;;4.80;99.90;;;;;;4885439;28;20225;-75
2020/12/30 06:17:20;;;;;;;3.83;2.87;;;4.70;99.90;;;;;;4886404;28;20193;-79
2020/12/30 06:19:45;;;;;;;3.13;2.83;;;4.80;99.90;;;;;;4903016;28;20225;-75
2020/12/30 06:22:12;;;;;;;4.93;3.37;;;4.90;99.90;;;;;;4906713;28;20187;-72
2020/12/30 06:24:34;;;;;;;4.23;3.73;;;4.80;99.90;;;;;;4897540;28;20230;-72
2020/12/30 06:27:02;;;;;;;4.53;4.00;;;4.80;99.90;;;;;;4868703;28;20198;-74
2020/12/30 06:29:27;;;;;;;4.90;4.40;;;4.80;99.90;;;;;;4887832;28;20244;-79
2020/12/30 06:31:50;;;;;;;5.00;3.40;;;4.60;99.90;;;;;;4889550;28;20200;-80
2020/12/30 06:34:14;;;;;;;5.53;4.27;;;4.70;99.90;;;;;;4886854;28;20189;-72
2020/12/30 06:36:36;;;;;;;14.80;10.07;;;4.70;99.90;;;;;;4908064;28;20331;-73
2020/12/30 06:38:58;;;;;;;12.10;8.80;;;4.70;99.90;;;;;;4904772;28;20649;-72
2020/12/30 06:41:20;;;;;;;10.10;6.67;;;4.60;99.90;;;;;;4905785;28;20650;-73
2020/12/30 06:43:44;;;;;;;8.10;6.47;;;4.60;99.90;;;;;;4907874;28;20181;-72
2020/12/30 06:46:06;;;;;;;7.60;6.27;;;4.60;99.90;;;;;;4887095;28;20189;-73
2020/12/30 06:48:28;;;;;;;9.23;7.27;;;4.60;99.90;;;;;;4903310;28;20601;-72
2020/12/30 06:50:51;;;;;;;6.40;4.67;;;4.60;99.90;;;;;;4903596;28;20246;-72
2020/12/30 06:53:31;;;;;;;5.50;4.73;;;4.60;99.90;;;;;;4905363;28;20215;-71
2020/12/30 06:55:54;;;;;;;6.20;5.60;;;4.60;99.90;;;;;;4900267;28;20216;-76
2020/12/30 06:58:44;;;;;;;7.53;6.83;;;4.50;99.90;;;;;;4904988;28;20188;-78
2020/12/30 07:01:06;;;;;;;5.80;5.30;;;4.50;99.90;;;;;;4901977;28;20220;-81
2020/12/30 07:03:32;;;;;;;6.10;5.50;;;4.60;99.90;;;;;;4906664;28;20172;-81
2020/12/30 07:06:36;;;;;;;6.33;5.70;;;4.50;99.90;;;;;;4900016;28;20646;-80
2020/12/30 07:09:00;;;;;;;8.73;7.83;;;4.50;99.90;;;;;;4900216;28;20587;-78
2020/12/30 07:11:50;;;;;;;9.77;8.77;;;4.50;99.90;;;;;;4909180;28;20534;-80
2020/12/30 07:14:13;;;;;;;11.17;8.73;;;4.40;99.90;;;;;;4869087;28;20182;-78
2020/12/30 07:16:36;;;;;;;10.67;9.57;;;4.50;99.90;;;;;;4888117;28;20216;-74
2020/12/30 07:18:59;;;;;;;11.63;9.93;;;4.40;99.90;;;;;;4891521;28;20622;-76
2020/12/30 07:21:23;;;;;;;9.93;8.93;;;4.40;99.90;;;;;;4903253;28;20200;-77
2020/12/30 07:23:46;;;;;;;8.73;7.83;;;4.50;99.90;;;;;;4902186;28;20239;-75
2020/12/30 07:26:16;;;;;;;9.73;8.77;;;4.60;99.90;;;;;;4886662;28;20274;-72
2020/12/30 07:28:38;;;;;;;9.17;8.27;;;4.50;99.90;;;;;;4897087;28;20250;-78
2020/12/30 07:31:00;;;;;;;7.63;6.83;;;4.60;99.90;;;;;;4903231;28;20184;-77
2020/12/30 07:33:23;;;;;;;8.70;7.70;;;4.70;99.90;;;;;;4908981;28;20257;-81
2020/12/30 07:35:45;;;;;;;20.27;14.33;;;4.60;99.90;;;;;;4883446;28;20261;-72
2020/12/30 07:38:13;;;;;;;19.47;13.93;;;4.60;99.90;;;;;;4887006;28;20246;-72
2020/12/30 07:40:35;;;;;;;12.90;10.97;;;4.50;99.90;;;;;;4906094;28;20188;-76
2020/12/30 07:42:59;;;;;;;11.27;9.83;;;4.80;99.90;;;;;;4912873;28;20184;-72
2020/12/30 07:45:22;;;;;;;12.13;10.13;;;4.70;99.90;;;;;;4903293;28;20336;-73
2020/12/30 07:47:44;;;;;;;9.53;7.23;;;4.70;99.90;;;;;;4887070;28;20250;-74
2020/12/30 07:50:07;;;;;;;8.77;7.27;;;4.70;99.90;;;;;;4902654;28;20739;-80
2020/12/30 07:52:29;;;;;;;12.93;7.80;;;4.70;99.90;;;;;;4903927;28;20293;-75
2020/12/30 07:54:52;;;;;;;10.03;8.03;;;4.70;99.90;;;;;;4901584;28;20538;-79
2020/12/30 07:57:14;;;;;;;8.73;7.13;;;4.80;99.90;;;;;;4904219;28;20203;-79
2020/12/30 07:59:38;;;;;;;10.03;7.53;;;4.70;99.90;;;;;;4879647;28;20193;-76
2020/12/30 08:02:02;;;;;;;11.00;7.80;;;4.90;99.90;;;;;;4898819;28;20289;-75
2020/12/30 08:04:25;;;;;;;12.93;10.40;;;4.90;99.90;;;;;;4880542;28;20201;-73
2020/12/30 08:06:47;;;;;;;18.10;14.83;;;4.90;99.90;;;;;;4906943;28;20192;-73
2020/12/30 08:09:11;;;;;;;11.27;9.67;;;5.00;99.90;;;;;;4883727;28;20205;-77
2020/12/30 08:11:34;;;;;;;10.73;9.23;;;4.90;99.90;;;;;;4886746;28;20888;-78
2020/12/30 08:14:08;;;;;;;13.43;10.03;;;4.90;99.90;;;;;;4914403;28;20200;-77
2020/12/30 08:16:31;;;;;;;12.20;9.47;;;4.90;99.90;;;;;;4913679;28;20200;-80
2020/12/30 08:18:54;;;;;;;11.60;9.30;;;4.90;99.90;;;;;;4900371;28;20265;-74
2020/12/30 08:21:17;;;;;;;12.13;9.70;;;4.90;99.90;;;;;;4894800;28;20192;-80
2020/12/30 08:23:39;;;;;;;12.50;9.17;;;4.80;99.90;;;;;;4893372;28;20206;-80
2020/12/30 08:26:04;;;;;;;12.53;9.97;;;4.90;99.90;;;;;;4875551;28;20205;-73
2020/12/30 08:28:28;;;;;;;12.17;10.00;;;4.80;99.90;;;;;;4894584;28;20234;-78
2020/12/30 08:30:53;;;;;;;12.10;9.53;;;4.90;99.90;;;;;;4895918;28;20185;-78
2020/12/30 08:33:15;;;;;;;13.17;11.03;;;4.90;99.90;;;;;;4879725;28;20670;-80
2020/12/30 08:35:44;;;;;;;12.33;9.83;;;4.90;99.90;;;;;;4898009;28;20258;-75
2020/12/30 08:38:12;;;;;;;13.50;10.37;;;4.90;99.90;;;;;;4899634;28;20662;-72
2020/12/30 08:40:36;;;;;;;15.60;10.97;;;4.90;99.90;;;;;;4887894;28;20186;-73
2020/12/30 08:43:22;;;;;;;20.67;13.47;;;4.80;99.90;;;;;;4903327;28;20608;-76
2020/12/30 08:46:03;;;;;;;17.77;12.93;;;4.90;99.90;;;;;;4882537;28;20197;-79
2020/12/30 08:48:28;;;;;;;13.77;9.87;;;4.90;99.90;;;;;;4875888;28;20231;-82
2020/12/30 08:50:50;;;;;;;8.53;7.00;;;4.80;99.90;;;;;;4884736;28;20193;-81
2020/12/30 08:53:13;;;;;;;7.83;6.97;;;4.90;99.90;;;;;;4898056;28;20188;-73
2020/12/30 08:55:36;;;;;;;8.67;6.47;;;4.80;99.90;;;;;;4867166;28;20221;-73
2020/12/30 08:57:58;;;;;;;8.43;6.70;;;4.70;99.90;;;;;;4898563;28;20257;-72
2020/12/30 09:00:22;;;;;;;8.70;6.17;;;4.80;99.90;;;;;;4914858;28;20228;-76
2020/12/30 09:02:45;;;;;;;7.17;6.43;;;4.80;99.90;;;;;;4912820;28;20728;-73
2020/12/30 09:05:08;;;;;;;9.00;6.80;;;4.80;99.90;;;;;;4916154;28;20653;-78
2020/12/30 09:07:30;;;;;;;7.73;6.33;;;4.80;99.90;;;;;;4899775;28;20254;-73
2020/12/30 09:10:01;;;;;;;8.90;7.20;;;4.80;99.90;;;;;;4896130;28;20291;-73
2020/12/30 09:12:25;;;;;;;30.40;24.10;;;4.90;99.90;;;;;;4899233;28;20205;-72
2020/12/30 09:14:47;;;;;;;25.33;19.93;;;4.90;99.90;;;;;;4915595;28;20233;-73
2020/12/30 09:17:14;;;;;;;16.93;13.80;;;4.90;99.90;;;;;;4893576;28;20695;-73
2020/12/30 09:19:37;;;;;;;23.87;19.37;;;4.90;99.90;;;;;;4870866;28;20202;-77
2020/12/30 09:22:06;;;;;;;16.83;13.47;;;4.90;99.90;;;;;;4879758;28;20189;-75
2020/12/30 09:24:35;;;;;;;17.73;13.97;;;5.00;99.90;;;;;;4889029;28;20574;-75
2020/12/30 09:26:57;;;;;;;17.03;14.13;;;5.00;99.90;;;;;;4915356;28;20188;-72
2020/12/30 09:29:20;;;;;;;12.23;10.93;;;4.80;99.90;;;;;;4904915;28;20237;-76
2020/12/30 09:31:51;;;;;;;8.07;6.77;;;4.90;99.90;;;;;;4888224;28;20217;-72
2020/12/30 09:34:19;;;;;;;7.83;6.03;;;5.00;99.90;;;;;;4881026;28;20185;-77
2020/12/30 09:36:53;;;;;;;7.07;6.13;;;4.90;99.90;;;;;;4896751;28;20256;-74
2020/12/30 09:39:17;;;;;;;6.67;5.97;;;4.80;99.90;;;;;;4916170;28;20539;-76
2020/12/30 09:41:39;;;;;;;7.50;6.17;;;4.90;99.90;;;;;;4898414;28;20227;-75
2020/12/30 09:44:01;;;;;;;7.60;6.70;;;5.00;99.90;;;;;;4887536;28;20188;-74
2020/12/30 09:46:24;;;;;;;7.97;6.77;;;4.90;99.90;;;;;;4901137;28;20243;-73
2020/12/30 09:48:46;;;;;;;10.10;8.63;;;4.90;99.90;;;;;;4889668;28;20232;-73
2020/12/30 09:51:08;;;;;;;12.13;10.87;;;5.00;99.90;;;;;;4890756;28;20213;-72
2020/12/30 09:53:31;;;;;;;8.97;7.97;;;5.00;99.90;;;;;;4896603;28;20218;-75
2020/12/30 09:55:53;;;;;;;9.20;7.87;;;5.00;99.90;;;;;;4878983;28;20232;-74
2020/12/30 09:58:15;;;;;;;9.97;8.23;;;5.10;99.90;;;;;;4879254;28;20186;-74
2020/12/30 10:00:38;;;;;;;16.13;10.93;;;4.90;99.90;;;;;;4908216;28;20594;-77
2020/12/30 10:03:00;;;;;;;12.17;9.73;;;5.10;99.90;;;;;;4915755;28;20237;-74
2020/12/30 10:05:22;;;;;;;9.63;8.63;;;5.10;99.90;;;;;;4879620;28;20194;-79
2020/12/30 10:07:44;;;;;;;8.90;7.80;;;5.00;99.90;;;;;;4906848;28;20250;-77
2020/12/30 10:10:08;;;;;;;9.00;7.70;;;5.10;99.90;;;;;;4897217;28;20258;-76
2020/12/30 10:12:30;;;;;;;8.17;7.30;;;5.00;99.90;;;;;;4880018;28;20205;-73
2020/12/30 10:14:52;;;;;;;9.00;7.23;;;4.90;99.90;;;;;;4863041;28;20621;-75
2020/12/30 10:17:14;;;;;;;9.23;7.50;;;5.10;99.90;;;;;;4898506;28;20325;-73
2020/12/30 10:19:36;;;;;;;8.97;8.07;;;5.00;99.90;;;;;;4881193;28;20734;-73
2020/12/30 10:21:58;;;;;;;9.67;8.30;;;5.00;99.90;;;;;;4904273;28;20650;-72
2020/12/30 10:24:20;;;;;;;9.67;8.67;;;5.00;99.90;;;;;;4888056;28;20345;-74
2020/12/30 10:26:43;;;;;;;10.30;9.27;;;5.00;99.90;;;;;;4886183;28;20246;-73
2020/12/30 10:29:05;;;;;;;11.30;9.83;;;4.90;99.90;;;;;;4899043;28;20185;-74
2020/12/30 10:31:29;;;;;;;11.43;10.03;;;5.00;99.90;;;;;;4907565;28;20241;-72
2020/12/30 10:33:51;;;;;;;12.83;9.73;;;5.00;99.90;;;;;;4911922;28;20184;-73
2020/12/30 10:36:13;;;;;;;11.77;10.57;;;5.10;99.90;;;;;;4906155;28;20552;-74
2020/12/30 10:38:36;;;;;;;11.87;10.27;;;5.00;99.90;;;;;;4887229;28;20184;-73
2020/12/30 10:40:58;;;;;;;10.90;9.73;;;5.10;99.90;;;;;;4888818;28;20536;-73
2020/12/30 10:43:21;;;;;;;10.93;9.50;;;5.30;99.90;;;;;;4899543;28;20234;-72
2020/12/30 10:45:44;;;;;;;15.90;10.87;;;5.10;99.90;;;;;;4905334;28;20204;-72
2020/12/30 10:48:06;;;;;;;12.50;11.20;;;5.20;99.90;;;;;;4869347;28;20748;-72
2020/12/30 10:50:28;;;;;;;15.27;12.63;;;5.20;99.90;;;;;;4886521;28;20193;-72
2020/12/30 10:52:50;;;;;;;12.23;10.97;;;5.10;99.90;;;;;;4879086;28;20996;-72
2020/12/30 10:55:12;;;;;;;12.47;11.13;;;5.20;99.90;;;;;;4884871;28;20201;-73
2020/12/30 10:57:34;;;;;;;14.13;12.13;;;5.10;99.90;;;;;;4906729;28;20204;-73
2020/12/30 10:59:57;;;;;;;13.70;12.27;;;5.10;99.90;;;;;;4887386;28;20269;-72
2020/12/30 11:02:22;;;;;;;13.97;11.90;;;5.10;99.90;;;;;;4903782;28;20215;-73
2020/12/30 11:04:44;;;;;;;14.83;11.93;;;5.20;99.90;;;;;;4901682;28;20534;-72
2020/12/30 11:07:06;;;;;;;17.67;14.20;;;5.20;99.90;;;;;;4904427;28;20188;-72
2020/12/30 11:09:28;;;;;;;17.37;14.53;;;5.00;99.90;;;;;;4879767;28;20603;-72
2020/12/30 11:11:51;;;;;;;18.83;14.87;;;5.20;99.90;;;;;;4896838;28;20181;-72
2020/12/30 11:14:13;;;;;;;15.73;14.07;;;5.20;99.90;;;;;;4890765;28;20181;-72
2020/12/30 11:16:36;;;;;;;16.77;14.87;;;5.20;99.90;;;;;;4876650;28;20279;-75
2020/12/30 11:18:58;;;;;;;17.47;15.13;;;5.30;99.90;;;;;;4895517;28;20192;-76
2020/12/30 11:21:20;;;;;;;15.80;14.00;;;5.30;99.90;;;;;;4894144;28;20598;-72
2020/12/30 11:23:42;;;;;;;17.97;14.27;;;5.30;99.90;;;;;;4895659;28;20184;-73
2020/12/30 11:26:06;;;;;;;16.90;15.07;;;5.40;99.90;;;;;;4894644;28;20242;-77
2020/12/30 11:28:28;;;;;;;15.37;13.40;;;5.50;99.90;;;;;;4901195;28;20210;-77
2020/12/30 11:30:50;;;;;;;14.93;13.30;;;5.40;99.90;;;;;;4902045;28;20233;-71
2020/12/30 11:33:13;;;;;;;13.03;11.67;;;5.40;99.90;;;;;;4902009;28;20188;-71
2020/12/30 11:35:35;;;;;;;13.20;11.90;;;5.50;99.90;;;;;;4885782;28;20189;-77
2020/12/30 11:37:58;;;;;;;13.13;11.30;;;5.50;99.90;;;;;;4898620;28;20234;-77
2020/12/30 11:40:20;;;;;;;12.43;11.20;;;5.50;99.90;;;;;;4868489;28;20256;-72
2020/12/30 11:42:42;;;;;;;12.90;11.60;;;5.50;99.90;;;;;;4907661;28;20719;-72
2020/12/30 11:45:04;;;;;;;11.80;10.60;;;5.60;99.90;;;;;;4908397;28;20233;-72
2020/12/30 11:47:27;;;;;;;11.70;10.43;;;5.40;99.90;;;;;;4906361;28;20261;-74
2020/12/30 11:49:50;;;;;;;12.27;10.60;;;5.50;99.90;;;;;;4906178;28;20617;-74
2020/12/30 11:52:12;;;;;;;12.60;11.20;;;5.50;99.90;;;;;;4903107;28;20204;-73
2020/12/30 11:54:34;;;;;;;12.87;11.30;;;5.60;99.90;;;;;;4903086;28;20556;-73
2020/12/30 11:56:56;;;;;;;15.33;12.77;;;5.60;99.90;;;;;;4902708;28;20975;-72
2020/12/30 11:59:18;;;;;;;15.90;13.17;;;5.50;99.90;;;;;;4885366;28;20200;-72
2020/12/30 12:01:40;;;;;;;16.13;13.83;;;5.50;99.90;;;;;;4897599;28;20223;-72
2020/12/30 12:04:03;;;;;;;14.97;13.40;;;5.50;99.90;;;;;;4901818;28;20176;-73
2020/12/30 12:06:26;;;;;;;16.37;14.20;;;5.70;99.90;;;;;;4886607;28;20247;-73
2020/12/30 12:08:49;;;;;;;17.53;14.60;;;5.60;99.90;;;;;;4858136;28;20683;-72
2020/12/30 12:11:11;;;;;;;17.57;14.93;;;5.60;99.90;;;;;;4904493;28;20224;-74
2020/12/30 12:13:33;;;;;;;16.10;14.40;;;5.60;99.90;;;;;;4913761;28;20641;-72
2020/12/30 12:15:55;;;;;;;16.30;14.60;;;5.60;99.90;;;;;;4913646;28;20589;-74
2020/12/30 12:18:17;;;;;;;16.30;14.70;;;5.60;99.90;;;;;;4885004;28;20228;-73
2020/12/30 12:20:40;;;;;;;19.90;17.20;;;5.60;99.90;;;;;;4869504;28;20189;-73
2020/12/30 12:23:03;;;;;;;21.73;18.33;;;5.60;99.90;;;;;;4878694;28;20202;-72
2020/12/30 12:25:26;;;;;;;16.73;14.33;;;5.60;99.90;;;;;;4893374;28;20230;-73
2020/12/30 12:27:48;;;;;;;17.87;15.10;;;5.70;99.90;;;;;;4897396;28;20218;-73
2020/12/30 12:30:10;;;;;;;17.83;14.90;;;5.60;99.90;;;;;;4897283;28;20732;-72
2020/12/30 12:32:32;;;;;;;18.83;16.57;;;5.60;99.90;;;;;;4898514;28;20594;-72